createdAt,value
2019-06-26T00:00:17.284Z,26.10
2019-06-26T00:02:50.701Z,25.90
2019-06-26T00:05:21.006Z,25.90
2019-06-26T00:07:51.313Z,25.80
2019-06-26T00:10:21.669Z,25.70
2019-06-26T00:12:51.970Z,25.70
2019-06-26T00:15:22.330Z,25.90
2019-06-26T00:17:58.264Z,25.70
2019-06-26T00:20:29.326Z,25.70
2019-06-26T00:23:00.274Z,25.70
2019-06-26T00:25:32.285Z,25.80
2019-06-26T00:28:04.191Z,25.80
2019-06-26T00:30:34.532Z,25.70
2019-06-26T00:33:04.883Z,25.80
2019-06-26T00:35:35.249Z,26.00
2019-06-26T00:38:05.522Z,25.90
2019-06-26T00:40:35.909Z,25.70
2019-06-26T00:43:06.189Z,25.60
2019-06-26T00:45:36.528Z,25.50
2019-06-26T00:48:06.954Z,25.50
2019-06-26T00:50:37.279Z,25.40
2019-06-26T00:53:07.630Z,25.30
2019-06-26T00:55:37.935Z,25.20
2019-06-26T00:58:08.298Z,25.30
2019-06-26T01:00:43.576Z,25.40
2019-06-26T01:03:13.805Z,25.40
2019-06-26T01:05:44.063Z,25.30
2019-06-26T01:08:14.368Z,25.10
2019-06-26T01:10:44.654Z,25.20
2019-06-26T01:13:14.940Z,25.30
2019-06-26T01:15:45.208Z,25.30
2019-06-26T01:18:15.556Z,25.40
2019-06-26T01:20:45.819Z,25.30
2019-06-26T01:23:16.116Z,25.40
2019-06-26T01:25:46.385Z,25.40
2019-06-26T01:28:16.689Z,25.40
2019-06-26T01:30:46.976Z,25.30
2019-06-26T01:33:17.270Z,25.20
2019-06-26T01:35:47.537Z,25.10
2019-06-26T01:38:17.822Z,25.10
2019-06-26T01:40:48.092Z,25.00
2019-06-26T01:43:18.377Z,25.00
2019-06-26T01:45:48.671Z,25.20
2019-06-26T01:48:19.017Z,25.30
2019-06-26T01:50:49.294Z,25.40
2019-06-26T01:53:19.560Z,25.40
2019-06-26T01:55:49.815Z,25.10
2019-06-26T01:58:20.123Z,25.00
2019-06-26T02:00:50.404Z,24.90
2019-06-26T02:03:20.704Z,24.90
2019-06-26T02:05:50.963Z,24.80
2019-06-26T02:08:21.257Z,24.60
2019-06-26T02:10:51.556Z,24.60
2019-06-26T02:13:21.872Z,24.60
2019-06-26T02:15:52.202Z,24.70
2019-06-26T02:18:38.398Z,24.80
2019-06-26T02:21:08.597Z,25.00
2019-06-26T02:23:38.875Z,25.20
2019-06-26T02:26:09.164Z,25.20
2019-06-26T02:28:39.558Z,25.20
2019-06-26T02:31:10.032Z,25.20
2019-06-26T02:33:40.241Z,25.20
2019-06-26T02:36:10.530Z,25.10
2019-06-26T02:38:40.820Z,24.90
2019-06-26T02:41:11.085Z,24.80
2019-06-26T02:43:41.374Z,24.90
2019-06-26T02:46:11.867Z,25.00
2019-06-26T02:48:42.213Z,25.00
2019-06-26T02:51:12.514Z,25.20
2019-06-26T02:53:42.802Z,25.10
2019-06-26T02:56:14.336Z,25.00
2019-06-26T02:58:44.638Z,25.00
2019-06-26T03:01:14.887Z,25.10
2019-06-26T03:03:45.176Z,25.10
2019-06-26T03:06:15.460Z,25.10
2019-06-26T03:08:45.764Z,25.00
2019-06-26T03:11:16.016Z,24.90
2019-06-26T03:13:46.308Z,24.60
2019-06-26T03:16:16.602Z,24.60
2019-06-26T03:18:46.901Z,24.60
2019-06-26T03:21:17.170Z,24.50
2019-06-26T03:23:47.513Z,24.40
2019-06-26T03:26:17.804Z,24.50
2019-06-26T03:28:48.094Z,24.40
2019-06-26T03:31:18.354Z,24.40
2019-06-26T03:33:51.771Z,24.40
2019-06-26T03:36:22.117Z,24.40
2019-06-26T03:38:52.417Z,24.60
2019-06-26T03:41:22.627Z,24.80
2019-06-26T03:43:52.906Z,24.70
2019-06-26T03:46:23.172Z,24.60
2019-06-26T03:48:53.483Z,24.40
2019-06-26T03:51:23.732Z,24.60
2019-06-26T03:53:53.964Z,24.70
2019-06-26T03:56:26.965Z,24.70
2019-06-26T03:58:57.263Z,24.80
2019-06-26T04:01:27.553Z,24.60
2019-06-26T04:03:57.844Z,24.40
2019-06-26T04:06:28.147Z,24.30
2019-06-26T04:08:59.780Z,24.30
2019-06-26T04:11:30.061Z,24.40
2019-06-26T04:14:00.408Z,24.60
2019-06-26T04:16:30.669Z,24.60
2019-06-26T04:19:00.990Z,24.60
2019-06-26T04:21:33.488Z,24.40
2019-06-26T04:24:06.230Z,24.40
2019-06-26T04:26:36.515Z,24.40
2019-06-26T04:29:06.804Z,24.40
2019-06-26T04:31:39.139Z,24.40
2019-06-26T04:34:09.437Z,24.60
2019-06-26T04:36:39.720Z,24.70
2019-06-26T04:39:10.050Z,24.80
2019-06-26T04:41:40.374Z,24.90
2019-06-26T04:44:10.586Z,25.00
2019-06-26T04:46:40.804Z,25.00
2019-06-26T04:49:11.075Z,25.10
2019-06-26T04:51:41.337Z,25.10
2019-06-26T04:54:11.625Z,25.00
2019-06-26T04:56:41.881Z,24.90
2019-06-26T04:59:12.170Z,25.00
2019-06-26T05:01:42.457Z,25.00
2019-06-26T05:04:14.271Z,24.80
2019-06-26T05:06:44.517Z,25.00
2019-06-26T05:09:14.816Z,25.00
2019-06-26T05:11:45.115Z,25.00
2019-06-26T05:14:15.500Z,25.00
2019-06-26T05:16:45.861Z,25.20
2019-06-26T05:19:16.169Z,25.00
2019-06-26T05:21:46.478Z,25.20
2019-06-26T05:24:16.757Z,25.20
2019-06-26T05:26:47.060Z,25.20
2019-06-26T05:29:17.418Z,25.30
2019-06-26T05:31:47.697Z,25.20
2019-06-26T05:34:18.019Z,25.20
2019-06-26T05:36:48.311Z,25.30
2019-06-26T05:39:18.613Z,25.50
2019-06-26T05:41:48.894Z,25.50
2019-06-26T05:44:19.178Z,25.50
2019-06-26T05:46:49.444Z,25.60
2019-06-26T05:49:19.738Z,25.70
2019-06-26T05:51:50.035Z,25.70
2019-06-26T05:54:20.380Z,25.80
2019-06-26T05:56:50.687Z,25.80
2019-06-26T05:59:21.068Z,25.80
2019-06-26T06:01:51.372Z,25.80
2019-06-26T06:04:21.597Z,25.90
2019-06-26T06:06:51.953Z,26.00
2019-06-26T06:09:22.296Z,26.00
2019-06-26T06:11:52.667Z,26.10
2019-06-26T06:14:22.940Z,26.40
2019-06-26T06:16:53.245Z,26.90
2019-06-26T06:19:23.566Z,27.90
2019-06-26T06:21:53.936Z,28.60
2019-06-26T06:24:24.201Z,29.10
2019-06-26T06:26:57.613Z,29.90
2019-06-26T06:29:30.722Z,30.60
2019-06-26T06:32:00.013Z,31.40
2019-06-26T06:34:30.299Z,31.90
2019-06-26T06:37:00.602Z,32.00
2019-06-26T06:39:30.905Z,32.30
2019-06-26T06:42:01.222Z,32.30
2019-06-26T06:44:31.484Z,32.60
2019-06-26T06:47:04.426Z,32.90
2019-06-26T06:49:33.793Z,33.20
2019-06-26T06:52:04.073Z,33.10
2019-06-26T06:54:34.409Z,33.40
2019-06-26T06:57:04.708Z,33.60
2019-06-26T06:59:35.037Z,33.70
2019-06-26T07:02:05.410Z,34.30
2019-06-26T07:04:35.702Z,34.40
2019-06-26T07:07:06.080Z,34.40
2019-06-26T07:09:36.471Z,34.60
2019-06-26T07:12:06.817Z,34.80
2019-06-26T07:14:37.108Z,34.70
2019-06-26T07:17:19.891Z,34.40
2019-06-26T07:19:40.691Z,34.60
2019-06-26T07:22:11.018Z,34.90
2019-06-26T07:24:41.376Z,34.90
2019-06-26T07:27:11.778Z,35.20
2019-06-26T07:29:44.473Z,35.50
2019-06-26T07:32:19.091Z,35.00
2019-06-26T07:34:49.473Z,35.10
2019-06-26T07:37:19.770Z,35.40
2019-06-26T07:39:50.102Z,35.40
2019-06-26T07:42:20.418Z,35.70
2019-06-26T07:44:50.790Z,35.70
2019-06-26T07:47:23.490Z,36.40
2019-06-26T07:49:53.121Z,35.70
2019-06-26T07:52:23.422Z,36.40
2019-06-26T07:54:53.645Z,36.80
2019-06-26T07:57:24.090Z,36.70
2019-06-26T07:59:55.613Z,36.80
2019-06-26T08:02:30.075Z,36.90
2019-06-26T08:05:00.472Z,36.80
2019-06-26T08:07:30.867Z,36.80
2019-06-26T08:10:01.278Z,36.70
2019-06-26T08:12:31.831Z,36.60
2019-06-26T08:15:02.249Z,36.70
2019-06-26T08:17:32.572Z,37.20
2019-06-26T08:20:02.907Z,37.60
2019-06-26T08:22:33.268Z,37.30
2019-06-26T08:25:03.635Z,37.10
2019-06-26T08:27:33.974Z,37.10
2019-06-26T08:30:04.549Z,36.60
2019-06-26T08:32:34.880Z,36.00
2019-06-26T08:35:05.572Z,35.90
2019-06-26T08:37:44.887Z,36.50
2019-06-26T08:40:15.834Z,36.80
2019-06-26T08:42:46.125Z,36.30
2019-06-26T08:45:16.524Z,35.90
2019-06-26T08:47:48.638Z,35.70
2019-06-26T08:50:19.103Z,35.70
2019-06-26T08:52:49.466Z,35.70
2019-06-26T08:55:19.777Z,35.70
2019-06-26T08:57:50.061Z,35.60
2019-06-26T09:00:20.693Z,35.70
2019-06-26T09:02:51.079Z,35.30
2019-06-26T09:05:21.410Z,35.40
2019-06-26T09:07:51.740Z,35.50
2019-06-26T09:10:22.306Z,35.30
2019-06-26T09:12:52.764Z,34.70
2019-06-26T09:15:23.139Z,34.10
2019-06-26T09:17:53.479Z,33.70
2019-06-26T09:20:30.826Z,33.70
2019-06-26T09:23:01.155Z,33.90
2019-06-26T09:25:31.493Z,34.10
2019-06-26T09:28:01.808Z,34.20
2019-06-26T09:30:32.103Z,33.90
2019-06-26T09:33:02.564Z,33.70
2019-06-26T09:35:32.880Z,33.50
2019-06-26T09:38:03.166Z,33.40
2019-06-26T09:40:33.468Z,33.40
2019-06-26T09:43:03.812Z,33.10
2019-06-26T09:45:34.193Z,33.00
2019-06-26T09:48:06.297Z,33.00
2019-06-26T09:50:36.702Z,33.10
2019-06-26T09:53:07.032Z,33.20
2019-06-26T09:55:37.384Z,33.00
2019-06-26T09:58:07.729Z,32.90
2019-06-26T10:00:38.109Z,32.80
2019-06-26T10:03:08.417Z,32.70
2019-06-26T10:05:38.733Z,32.60
2019-06-26T10:08:09.048Z,32.70
2019-06-26T10:10:39.492Z,32.70
2019-06-26T10:13:09.785Z,32.70
2019-06-26T10:15:40.077Z,32.60
2019-06-26T10:18:10.538Z,32.40
2019-06-26T10:20:40.864Z,32.80
2019-06-26T10:23:11.289Z,33.10
2019-06-26T10:25:41.760Z,33.30
2019-06-26T10:28:12.239Z,33.50
2019-06-26T10:30:42.583Z,33.40
2019-06-26T10:33:19.410Z,33.20
2019-06-26T10:36:01.641Z,33.00
2019-06-26T10:38:31.953Z,33.00
2019-06-26T10:41:02.235Z,32.90
2019-06-26T10:43:32.552Z,32.90
2019-06-26T10:46:02.883Z,32.90
2019-06-26T10:48:33.260Z,32.90
2019-06-26T10:51:03.556Z,32.90
2019-06-26T10:53:33.854Z,32.90
2019-06-26T10:56:04.178Z,32.90
2019-06-26T10:58:34.489Z,32.90
2019-06-26T11:01:05.200Z,33.20
2019-06-26T11:03:35.570Z,33.20
2019-06-26T11:06:05.892Z,33.30
2019-06-26T11:08:36.238Z,33.30
2019-06-26T11:11:06.625Z,33.40
2019-06-26T11:13:36.973Z,33.40
2019-06-26T11:16:07.312Z,33.60
2019-06-26T11:18:37.700Z,33.70
2019-06-26T11:21:08.039Z,33.70
2019-06-26T11:23:38.394Z,33.60
2019-06-26T11:26:08.706Z,33.50
2019-06-26T11:28:39.065Z,33.40
2019-06-26T11:31:09.413Z,33.40
2019-06-26T11:33:39.857Z,33.40
2019-06-26T11:36:10.198Z,33.30
2019-06-26T11:38:40.493Z,33.40
2019-06-26T11:41:10.805Z,33.50
2019-06-26T11:43:41.103Z,33.50
2019-06-26T11:46:11.418Z,33.50
2019-06-26T11:48:41.722Z,33.50
2019-06-26T11:51:11.982Z,33.50
2019-06-26T11:53:42.297Z,33.50
2019-06-26T11:56:13.027Z,33.50
2019-06-26T11:58:43.305Z,33.60
2019-06-26T12:01:13.601Z,33.60
2019-06-26T12:03:43.912Z,33.50
2019-06-26T12:06:18.879Z,33.50
2019-06-26T12:08:46.197Z,33.60
2019-06-26T12:11:16.500Z,33.80
2019-06-26T12:13:46.781Z,33.80
2019-06-26T12:16:17.874Z,33.90
2019-06-26T12:18:48.143Z,34.00
2019-06-26T12:21:18.474Z,34.00
2019-06-26T12:23:48.850Z,33.90
2019-06-26T12:26:19.139Z,33.90
2019-06-26T12:28:49.471Z,33.90
2019-06-26T12:31:19.869Z,33.90
2019-06-26T12:33:50.084Z,33.90
2019-06-26T12:36:20.486Z,34.00
2019-06-26T12:38:50.859Z,34.10
2019-06-26T12:41:21.236Z,34.20
2019-06-26T12:43:51.554Z,34.20
2019-06-26T12:46:21.870Z,34.20
2019-06-26T12:48:52.194Z,34.00
2019-06-26T12:51:22.415Z,33.90
2019-06-26T12:53:52.743Z,34.00
2019-06-26T12:56:23.077Z,34.00
2019-06-26T12:58:53.367Z,34.10
2019-06-26T13:01:25.200Z,34.10
2019-06-26T13:03:55.548Z,34.10
2019-06-26T13:06:25.855Z,34.10
2019-06-26T13:08:56.152Z,34.10
2019-06-26T13:11:26.461Z,34.20
2019-06-26T13:14:02.749Z,34.30
2019-06-26T13:16:28.797Z,34.30
2019-06-26T13:18:59.109Z,34.30
2019-06-26T13:21:29.439Z,34.30
2019-06-26T13:23:59.774Z,34.30
2019-06-26T13:26:30.222Z,34.30
2019-06-26T13:29:00.587Z,34.30
2019-06-26T13:31:30.901Z,34.40
2019-06-26T13:34:01.224Z,34.30
2019-06-26T13:36:31.455Z,34.30
2019-06-26T13:39:01.822Z,34.30
2019-06-26T13:41:32.146Z,34.40
2019-06-26T13:44:02.471Z,34.40
2019-06-26T13:46:32.808Z,34.30
2019-06-26T13:49:03.121Z,34.30
2019-06-26T13:51:33.439Z,34.20
2019-06-26T13:54:03.794Z,34.20
2019-06-26T13:56:34.167Z,34.30
2019-06-26T13:59:07.377Z,34.40
2019-06-26T14:01:36.648Z,34.40
2019-06-26T14:04:07.012Z,34.50
2019-06-26T14:06:37.340Z,34.50
2019-06-26T14:09:08.543Z,34.40
2019-06-26T14:11:38.875Z,34.40
2019-06-26T14:14:09.388Z,34.40
2019-06-26T14:16:39.722Z,34.40
2019-06-26T14:19:10.048Z,34.50
2019-06-26T14:21:40.359Z,34.50
2019-06-26T14:24:10.715Z,34.40
2019-06-26T14:26:41.092Z,34.40
2019-06-26T14:29:20.750Z,34.40
2019-06-26T14:31:46.611Z,34.40
2019-06-26T14:34:17.022Z,34.40
2019-06-26T14:36:47.315Z,34.40
2019-06-26T14:39:17.614Z,34.40
2019-06-26T14:41:47.947Z,34.20
2019-06-26T14:44:21.975Z,34.10
2019-06-26T14:46:53.937Z,34.10
2019-06-26T14:49:24.604Z,34.10
2019-06-26T14:51:55.040Z,34.00
2019-06-26T14:54:25.361Z,34.10
2019-06-26T14:56:56.349Z,34.10
2019-06-26T14:59:26.687Z,34.20
2019-06-26T15:01:57.758Z,34.30
2019-06-26T15:04:29.190Z,34.30
2019-06-26T15:07:05.943Z,34.30
2019-06-26T15:09:37.969Z,34.30
2019-06-26T15:12:08.496Z,34.20
2019-06-26T15:14:39.639Z,34.20
2019-06-26T15:17:10.693Z,34.20
2019-06-26T15:19:41.119Z,34.20
2019-06-26T15:22:11.930Z,34.10
2019-06-26T15:24:42.297Z,34.00
2019-06-26T15:27:13.826Z,34.00
2019-06-26T15:29:44.440Z,34.00
2019-06-26T15:32:14.811Z,34.10
2019-06-26T15:34:46.112Z,34.10
2019-06-26T15:37:17.703Z,34.10
2019-06-26T15:39:48.600Z,34.10
2019-06-26T15:42:19.095Z,34.00
2019-06-26T15:44:49.423Z,33.90
2019-06-26T15:47:19.964Z,33.90
2019-06-26T15:49:51.161Z,34.00
2019-06-26T15:52:21.518Z,34.00
2019-06-26T15:54:51.832Z,34.00
2019-06-26T15:57:22.152Z,33.90
2019-06-26T15:59:52.502Z,33.90
2019-06-26T16:02:22.812Z,33.90
2019-06-26T16:04:53.160Z,33.90
2019-06-26T16:07:23.517Z,33.90
2019-06-26T16:09:53.853Z,33.90
2019-06-26T16:12:24.418Z,34.00
2019-06-26T16:14:54.777Z,34.00
2019-06-26T16:17:51.583Z,33.90
2019-06-26T16:20:21.968Z,33.80
2019-06-26T16:22:52.316Z,33.80
2019-06-26T16:25:25.094Z,33.70
2019-06-26T16:28:04.734Z,33.70
2019-06-26T16:30:27.314Z,33.60
2019-06-26T16:32:57.666Z,33.60
2019-06-26T16:35:28.067Z,33.60
2019-06-26T16:37:58.502Z,33.60
2019-06-26T16:40:28.806Z,33.60
2019-06-26T16:42:59.120Z,33.50
2019-06-26T16:45:29.408Z,33.50
2019-06-26T16:47:59.729Z,33.40
2019-06-26T16:50:30.098Z,33.50
2019-06-26T16:53:00.416Z,33.40
2019-06-26T16:55:30.714Z,33.50
2019-06-26T16:58:01.074Z,33.40
2019-06-26T17:00:31.396Z,33.50
2019-06-26T17:03:03.056Z,33.40
2019-06-26T17:05:33.394Z,33.40
2019-06-26T17:08:03.721Z,33.40
2019-06-26T17:10:33.997Z,33.30
2019-06-26T17:13:04.332Z,33.30
2019-06-26T17:15:34.673Z,33.40
2019-06-26T17:18:05.064Z,33.40
2019-06-26T17:20:35.401Z,33.40
2019-06-26T17:23:06.723Z,33.30
2019-06-26T17:25:37.171Z,33.30
2019-06-26T17:28:07.494Z,33.30
2019-06-26T17:30:37.777Z,33.40
2019-06-26T17:33:08.218Z,33.40
2019-06-26T17:35:38.490Z,33.40
2019-06-26T17:38:08.796Z,33.40
2019-06-26T17:40:39.087Z,33.30
2019-06-26T17:43:12.621Z,33.20
2019-06-26T17:45:41.452Z,33.10
2019-06-26T17:48:11.770Z,33.10
2019-06-26T17:50:42.046Z,33.00
2019-06-26T17:53:21.716Z,33.00
2019-06-26T17:55:44.428Z,33.00
2019-06-26T17:58:14.772Z,33.00
2019-06-26T18:00:45.165Z,32.90
2019-06-26T18:03:15.470Z,32.90
2019-06-26T18:05:45.827Z,32.90
2019-06-26T18:08:16.142Z,32.90
2019-06-26T18:10:46.372Z,32.80
2019-06-26T18:13:16.777Z,32.70
2019-06-26T18:15:47.065Z,32.80
2019-06-26T18:18:17.459Z,32.90
2019-06-26T18:20:47.780Z,32.70
2019-06-26T18:23:18.108Z,32.70
2019-06-26T18:25:54.252Z,32.70
2019-06-26T18:28:20.531Z,32.60
2019-06-26T18:30:50.865Z,32.60
2019-06-26T18:33:21.174Z,32.50
2019-06-26T18:35:51.499Z,32.40
2019-06-26T18:38:21.836Z,32.40
2019-06-26T18:40:52.120Z,32.40
2019-06-26T18:43:22.440Z,32.40
2019-06-26T18:45:52.752Z,32.30
2019-06-26T18:48:25.039Z,32.20
2019-06-26T18:50:55.108Z,32.00
2019-06-26T18:53:25.405Z,31.90
2019-06-26T18:55:55.704Z,31.90
2019-06-26T18:58:25.970Z,31.80
2019-06-26T19:00:56.243Z,31.70
2019-06-26T19:03:26.611Z,31.60
2019-06-26T19:05:56.904Z,31.60
2019-06-26T19:08:27.269Z,31.50
2019-06-26T19:10:57.808Z,31.40
2019-06-26T19:13:28.207Z,31.40
2019-06-26T19:15:58.553Z,31.40
2019-06-26T19:18:28.880Z,31.30
2019-06-26T19:20:59.209Z,31.30
2019-06-26T19:23:29.541Z,31.30
2019-06-26T19:25:59.899Z,31.20
2019-06-26T19:28:30.239Z,31.10
2019-06-26T19:31:00.535Z,31.00
2019-06-26T19:33:33.338Z,30.90
2019-06-26T19:36:03.702Z,30.90
2019-06-26T19:38:34.019Z,30.80
2019-06-26T19:41:08.360Z,30.80
2019-06-26T19:43:36.929Z,30.80
2019-06-26T19:46:10.062Z,30.70
2019-06-26T19:48:40.421Z,30.60
2019-06-26T19:51:10.761Z,30.60
2019-06-26T19:53:41.115Z,30.60
2019-06-26T19:56:11.467Z,30.50
2019-06-26T19:58:41.844Z,30.50
2019-06-26T20:01:12.136Z,30.40
2019-06-26T20:03:42.501Z,30.40
2019-06-26T20:06:12.877Z,30.40
2019-06-26T20:08:54.430Z,30.30
2019-06-26T20:11:15.190Z,30.30
2019-06-26T20:13:45.500Z,30.20
2019-06-26T20:16:15.830Z,30.20
2019-06-26T20:18:46.242Z,30.10
2019-06-26T20:21:16.556Z,30.10
2019-06-26T20:23:46.877Z,30.10
2019-06-26T20:26:17.291Z,30.10
2019-06-26T20:28:47.624Z,30.10
2019-06-26T20:31:18.040Z,30.10
2019-06-26T20:33:48.369Z,30.00
2019-06-26T20:36:18.700Z,30.00
2019-06-26T20:38:49.074Z,29.90
2019-06-26T20:41:19.449Z,29.90
2019-06-26T20:43:49.809Z,29.90
2019-06-26T20:46:20.106Z,29.80
2019-06-26T20:48:50.425Z,29.80
2019-06-26T20:51:21.080Z,29.70
2019-06-26T20:53:51.426Z,29.70
2019-06-26T20:56:21.752Z,29.60
2019-06-26T20:58:52.113Z,29.60
2019-06-26T21:01:22.469Z,29.60
2019-06-26T21:03:52.762Z,29.50
2019-06-26T21:06:23.122Z,29.50
2019-06-26T21:08:53.489Z,29.50
2019-06-26T21:11:23.824Z,29.50
2019-06-26T21:13:54.124Z,29.40
2019-06-26T21:16:24.434Z,29.40
2019-06-26T21:18:54.762Z,29.30
2019-06-26T21:21:25.192Z,29.30
2019-06-26T21:23:55.597Z,29.30
2019-06-26T21:26:26.084Z,29.30
2019-06-26T21:28:56.471Z,29.20
2019-06-26T21:31:26.832Z,29.30
2019-06-26T21:33:57.188Z,29.20
2019-06-26T21:36:27.545Z,29.20
2019-06-26T21:38:57.862Z,29.10
2019-06-26T21:41:28.226Z,29.10
2019-06-26T21:43:58.555Z,28.90
2019-06-26T21:46:28.881Z,29.00
2019-06-26T21:48:59.288Z,28.90
2019-06-26T21:51:29.643Z,28.90
2019-06-26T21:53:59.867Z,29.00
2019-06-26T21:56:30.184Z,28.90
2019-06-26T21:59:00.547Z,29.00
2019-06-26T22:01:30.953Z,29.00
2019-06-26T22:04:01.747Z,29.00
2019-06-26T22:06:32.108Z,29.00
2019-06-26T22:09:02.446Z,28.90
2019-06-26T22:11:32.829Z,28.80
2019-06-26T22:14:03.329Z,28.60
2019-06-26T22:16:33.591Z,28.60
2019-06-26T22:19:03.955Z,28.70
2019-06-26T22:21:34.257Z,28.70
2019-06-26T22:24:04.637Z,28.70
2019-06-26T22:26:35.185Z,28.70
2019-06-26T22:29:05.486Z,28.70
2019-06-26T22:31:35.803Z,28.70
2019-06-26T22:34:06.128Z,28.70
2019-06-26T22:36:36.607Z,28.70
2019-06-26T22:39:07.390Z,28.70
2019-06-26T22:41:37.740Z,28.60
2019-06-26T22:44:08.044Z,28.50
2019-06-26T22:46:38.388Z,28.40
2019-06-26T22:49:08.701Z,28.40
2019-06-26T22:51:39.118Z,28.40
2019-06-26T22:54:09.422Z,28.40
2019-06-26T22:56:39.749Z,28.50
2019-06-26T22:59:10.054Z,28.40
2019-06-26T23:01:40.596Z,28.40
2019-06-26T23:04:10.974Z,28.30
2019-06-26T23:06:41.317Z,28.20
2019-06-26T23:09:11.686Z,28.30
2019-06-26T23:11:42.029Z,28.20
2019-06-26T23:14:12.301Z,28.20
2019-06-26T23:16:42.635Z,28.20
2019-06-26T23:19:15.035Z,28.20
2019-06-26T23:21:44.955Z,28.20
2019-06-26T23:24:15.259Z,28.20
2019-06-26T23:26:45.569Z,28.10
2019-06-26T23:29:15.879Z,28.20
2019-06-26T23:31:46.203Z,28.20
2019-06-26T23:34:18.214Z,28.00
2019-06-26T23:36:48.643Z,27.80
2019-06-26T23:39:18.925Z,28.00
2019-06-26T23:41:49.253Z,27.70
2019-06-26T23:44:19.534Z,27.90
2019-06-26T23:46:49.802Z,28.00
2019-06-26T23:49:20.095Z,27.70
2019-06-26T23:51:50.441Z,27.50
2019-06-26T23:54:20.706Z,27.50
2019-06-26T23:56:51.002Z,27.50
2019-06-26T23:59:21.287Z,27.60
